Time,TemperatureF,DewpointF,PressureIn,WindDirection,WindDirectionDegrees,WindSpeedMPH,WindSpeedGustMPH,Humidity,HourlyPrecipIn,Conditions,Clouds,dailyrainin,SolarRadiationWatts/m^2,SoftwareType,DateUTC
2013-01-20 00:00:00,43.7,11.0,30.28,West,265,3.0,4.0,26,0.00,,,0.00,0,weatherlink.com 1.10,2013-01-20 08:00:00,
2013-01-20 00:15:00,44.5,11.0,30.28,WSW,253,4.0,4.0,26,0.00,,,0.00,0,weatherlink.com 1.10,2013-01-20 08:15:00,
2013-01-20 00:30:00,44.9,11.0,30.28,WNW,296,0.0,2.0,25,0.00,,,0.00,0,weatherlink.com 1.10,2013-01-20 08:30:00,
2013-01-20 00:45:00,44.6,11.0,30.28,WNW,296,0.0,3.0,26,0.00,,,0.00,0,weatherlink.com 1.10,2013-01-20 08:45:00,
2013-01-20 01:00:00,45.0,12.0,30.28,WNW,296,1.0,3.0,26,0.00,,,0.00,0,weatherlink.com 1.10,2013-01-20 09:00:00,
2013-01-20 01:15:00,45.1,13.0,30.28,North,10,1.0,4.0,27,0.00,,,0.00,0,weatherlink.com 1.10,2013-01-20 09:15:00,
2013-01-20 01:30:00,44.3,11.0,30.28,NW,304,0.0,4.0,26,0.00,,,0.00,0,weatherlink.com 1.10,2013-01-20 09:30:00,
2013-01-20 01:45:00,43.2,11.0,30.29,NNW,327,0.0,3.0,27,0.00,,,0.00,0,weatherlink.com 1.10,2013-01-20 09:45:00,
2013-01-20 02:01:00,42.3,11.0,30.28,NNW,327,0.0,2.0,28,0.00,,,0.00,0,weatherlink.com 1.10,2013-01-20 10:01:00,
2013-01-20 02:16:00,42.9,11.0,30.28,WNW,290,3.0,4.0,27,0.00,,,0.00,0,weatherlink.com 1.10,2013-01-20 10:16:00,
2013-01-20 02:31:00,43.6,11.0,30.28,West,275,0.0,3.0,26,0.00,,,0.00,0,weatherlink.com 1.10,2013-01-20 10:31:00,
2013-01-20 02:46:00,43.7,12.0,30.28,North,355,4.0,5.0,28,0.00,,,0.00,0,weatherlink.com 1.10,2013-01-20 10:46:00,
2013-01-20 03:01:00,42.5,12.0,30.28,North,355,2.0,3.0,29,0.00,,,0.00,0,weatherlink.com 1.10,2013-01-20 11:01:00,
2013-01-20 03:16:00,40.8,11.0,30.28,WNW,294,0.0,4.0,29,0.00,,,0.00,0,weatherlink.com 1.10,2013-01-20 11:16:00,
2013-01-20 03:31:00,40.4,11.0,30.28,WNW,294,0.0,3.0,30,0.00,,,0.00,0,weatherlink.com 1.10,2013-01-20 11:31:00,
2013-01-20 03:46:00,40.0,11.0,30.28,WNW,296,0.0,4.0,31,0.00,,,0.00,0,weatherlink.com 1.10,2013-01-20 11:46:00,
2013-01-20 04:16:00,38.9,11.0,30.27,SW,229,0.0,3.0,32,0.00,,,0.00,0,weatherlink.com 1.10,2013-01-20 12:16:00,
2013-01-20 04:31:00,39.4,10.0,30.27,SW,229,0.0,4.0,30,0.00,,,0.00,0,weatherlink.com 1.10,2013-01-20 12:31:00,
2013-01-20 04:46:00,40.0,11.0,30.27,SW,229,2.0,2.0,31,0.00,,,0.00,0,weatherlink.com 1.10,2013-01-20 12:46:00,
2013-01-20 05:01:00,40.1,12.0,30.26,SW,229,0.0,2.0,31,0.00,,,0.00,0,weatherlink.com 1.10,2013-01-20 13:01:00,
2013-01-20 05:16:00,40.0,11.0,30.27,SW,229,0.0,2.0,31,0.00,,,0.00,0,weatherlink.com 1.10,2013-01-20 13:16:00,
2013-01-20 05:31:00,39.8,12.0,30.28,SW,229,0.0,2.0,32,0.00,,,0.00,0,weatherlink.com 1.10,2013-01-20 13:31:00,
2013-01-20 05:46:00,39.5,11.0,30.28,SW,229,0.0,3.0,31,0.00,,,0.00,0,weatherlink.com 1.10,2013-01-20 13:46:00,
2013-01-20 06:01:00,39.3,12.0,30.27,SW,229,0.0,2.0,32,0.00,,,0.00,0,weatherlink.com 1.10,2013-01-20 14:01:00,
2013-01-20 06:16:00,38.9,11.0,30.28,SW,229,0.0,2.0,32,0.00,,,0.00,0,weatherlink.com 1.10,2013-01-20 14:16:00,
2013-01-20 06:31:00,38.4,12.0,30.28,SW,229,0.0,3.0,34,0.00,,,0.00,0,weatherlink.com 1.10,2013-01-20 14:31:00,
2013-01-20 06:46:00,37.8,11.0,30.28,SW,229,0.0,3.0,33,0.00,,,0.00,0,weatherlink.com 1.10,2013-01-20 14:46:00,
2013-01-20 07:01:00,37.0,11.0,30.28,WSW,246,4.0,5.0,34,0.00,,,0.00,7,weatherlink.com 1.10,2013-01-20 15:01:00,
2013-01-20 07:16:00,36.9,11.0,30.28,NW,309,0.0,6.0,34,0.00,,,0.00,12,weatherlink.com 1.10,2013-01-20 15:16:00,
2013-01-20 07:31:00,38.5,12.0,30.28,NW,322,4.0,8.0,34,0.00,,,0.00,16,weatherlink.com 1.10,2013-01-20 15:31:00,
2013-01-20 07:46:00,40.3,12.0,30.29,NW,322,0.0,5.0,31,0.00,,,0.00,19,weatherlink.com 1.10,2013-01-20 15:46:00,
2013-01-20 08:01:00,41.2,12.0,30.29,NW,322,0.0,1.0,30,0.00,,,0.00,21,weatherlink.com 1.10,2013-01-20 16:01:00,
2013-01-20 08:16:00,41.9,12.0,30.30,NW,322,0.0,1.0,30,0.00,,,0.00,21,weatherlink.com 1.10,2013-01-20 16:16:00,
2013-01-20 08:31:00,42.1,13.0,30.30,NW,322,0.0,2.0,30,0.00,,,0.00,23,weatherlink.com 1.10,2013-01-20 16:31:00,
2013-01-20 08:46:00,42.6,12.0,30.30,NW,322,0.0,1.0,29,0.00,,,0.00,62,weatherlink.com 1.10,2013-01-20 16:46:00,
2013-01-20 09:01:00,43.4,14.0,30.31,NW,322,0.0,1.0,30,0.00,,,0.00,359,weatherlink.com 1.10,2013-01-20 17:01:00,
2013-01-20 09:16:00,46.1,13.0,30.31,NW,322,0.0,1.0,26,0.00,,,0.00,394,weatherlink.com 1.10,2013-01-20 17:16:00,
2013-01-20 09:31:00,49.3,13.0,30.31,NW,322,0.0,2.0,23,0.00,,,0.00,422,weatherlink.com 1.10,2013-01-20 17:31:00,
2013-01-20 09:46:00,49.9,13.0,30.31,North,355,0.0,3.0,23,0.00,,,0.00,450,weatherlink.com 1.10,2013-01-20 17:46:00,
2013-01-20 10:02:00,52.2,14.0,30.31,SE,138,3.0,4.0,22,0.00,,,0.00,475,weatherlink.com 1.10,2013-01-20 18:02:00,
2013-01-20 10:17:00,52.5,14.0,30.31,North,5,1.0,6.0,22,0.00,,,0.00,494,weatherlink.com 1.10,2013-01-20 18:17:00,
2013-01-20 10:32:00,53.4,14.0,30.30,NE,44,1.0,6.0,21,0.00,,,0.00,512,weatherlink.com 1.10,2013-01-20 18:32:00,
2013-01-20 10:47:00,54.4,16.0,30.29,NNE,29,2.0,7.0,22,0.00,,,0.00,526,weatherlink.com 1.10,2013-01-20 18:47:00,
2013-01-20 11:02:00,54.6,14.0,30.29,ENE,60,0.0,6.0,20,0.00,,,0.00,538,weatherlink.com 1.10,2013-01-20 19:02:00,
2013-01-20 11:17:00,54.7,15.0,30.27,East,93,5.0,7.0,21,0.00,,,0.00,545,weatherlink.com 1.10,2013-01-20 19:17:00,
2013-01-20 11:32:00,55.9,14.0,30.27,East,95,3.0,8.0,19,0.00,,,0.00,550,weatherlink.com 1.10,2013-01-20 19:32:00,
2013-01-20 11:47:00,56.1,15.0,30.26,ENE,61,0.0,8.0,20,0.00,,,0.00,548,weatherlink.com 1.10,2013-01-20 19:47:00,
2013-01-20 12:02:00,57.2,20.0,30.25,NE,44,3.0,8.0,23,0.00,,,0.00,543,weatherlink.com 1.10,2013-01-20 20:02:00,
2013-01-20 12:17:00,57.2,18.0,30.24,NNE,27,0.0,9.0,22,0.00,,,0.00,536,weatherlink.com 1.10,2013-01-20 20:17:00,
2013-01-20 12:32:00,57.0,15.0,30.24,SE,139,3.0,4.0,19,0.00,,,0.00,524,weatherlink.com 1.10,2013-01-20 20:32:00,
2013-01-20 12:47:00,57.7,19.0,30.23,South,169,0.0,2.0,22,0.00,,,0.00,510,weatherlink.com 1.10,2013-01-20 20:47:00,
2013-01-20 13:02:00,58.0,18.0,30.22,ENE,69,0.0,4.0,21,0.00,,,0.00,492,weatherlink.com 1.10,2013-01-20 21:02:00,
2013-01-20 13:17:00,58.7,16.0,30.21,North,360,2.0,7.0,19,0.00,,,0.00,471,weatherlink.com 1.10,2013-01-20 21:17:00,
2013-01-20 13:32:00,58.5,17.0,30.21,NE,42,1.0,5.0,20,0.00,,,0.00,446,weatherlink.com 1.10,2013-01-20 21:32:00,
2013-01-20 13:47:00,59.2,17.0,30.20,SSE,155,1.0,4.0,19,0.00,,,0.00,422,weatherlink.com 1.10,2013-01-20 21:47:00,
2013-01-20 14:02:00,59.4,17.0,30.20,SSE,167,0.0,5.0,19,0.00,,,0.00,397,weatherlink.com 1.10,2013-01-20 22:02:00,
2013-01-20 14:17:00,59.1,17.0,30.19,South,175,0.0,5.0,19,0.00,,,0.00,364,weatherlink.com 1.10,2013-01-20 22:17:00,
2013-01-20 14:33:00,59.0,15.0,30.19,South,175,1.0,4.0,18,0.00,,,0.00,327,weatherlink.com 1.10,2013-01-20 22:33:00,
2013-01-20 14:47:00,59.0,17.0,30.18,South,175,2.0,3.0,19,0.00,,,0.00,292,weatherlink.com 1.10,2013-01-20 22:47:00,
2013-01-20 15:02:00,58.5,16.0,30.18,South,175,2.0,4.0,19,0.00,,,0.00,44,weatherlink.com 1.10,2013-01-20 23:02:00,
2013-01-20 15:17:00,58.9,16.0,30.18,South,175,0.0,3.0,19,0.00,,,0.00,25,weatherlink.com 1.10,2013-01-20 23:17:00,
2013-01-20 15:32:00,58.0,17.0,30.18,South,175,0.0,2.0,20,0.00,,,0.00,26,weatherlink.com 1.10,2013-01-20 23:32:00,
2013-01-20 15:47:00,57.3,16.0,30.18,South,175,0.0,1.0,20,0.00,,,0.00,16,weatherlink.com 1.10,2013-01-20 23:47:00,
2013-01-20 16:02:00,56.6,16.0,30.18,South,175,0.0,1.0,20,0.00,,,0.00,14,weatherlink.com 1.10,2013-01-21 00:02:00,
2013-01-20 16:17:00,55.5,16.0,30.18,South,175,2.0,2.0,21,0.00,,,0.00,12,weatherlink.com 1.10,2013-01-21 00:17:00,
2013-01-20 16:32:00,54.2,15.0,30.18,South,175,3.0,3.0,21,0.00,,,0.00,9,weatherlink.com 1.10,2013-01-21 00:32:00,
2013-01-20 16:47:00,53.2,15.0,30.18,South,175,4.0,4.0,22,0.00,,,0.00,5,weatherlink.com 1.10,2013-01-21 00:47:00,
2013-01-20 17:02:00,52.6,15.0,30.18,South,190,2.0,5.0,22,0.00,,,0.00,0,weatherlink.com 1.10,2013-01-21 01:02:00,
2013-01-20 17:17:00,52.0,14.0,30.18,South,190,2.0,4.0,22,0.00,,,0.00,0,weatherlink.com 1.10,2013-01-21 01:17:00,
2013-01-20 17:32:00,51.8,13.0,30.18,WSW,248,4.0,5.0,21,0.00,,,0.00,0,weatherlink.com 1.10,2013-01-21 01:32:00,
2013-01-20 17:47:00,52.1,14.0,30.18,WSW,250,4.0,5.0,22,0.00,,,0.00,0,weatherlink.com 1.10,2013-01-21 01:47:00,
2013-01-20 18:17:00,51.9,14.0,30.19,West,261,3.0,3.0,22,0.00,,,0.00,0,weatherlink.com 1.10,2013-01-21 02:17:00,
2013-01-20 18:32:00,51.5,14.0,30.19,WSW,254,6.0,7.0,22,0.00,,,0.00,0,weatherlink.com 1.10,2013-01-21 02:32:00,
2013-01-20 18:47:00,51.2,14.0,30.19,WSW,254,2.0,4.0,23,0.00,,,0.00,0,weatherlink.com 1.10,2013-01-21 02:47:00,
2013-01-20 19:02:00,50.4,14.0,30.19,WSW,254,3.0,4.0,23,0.00,,,0.00,0,weatherlink.com 1.10,2013-01-21 03:02:00,
2013-01-20 19:17:00,49.8,13.0,30.19,WSW,254,0.0,1.0,23,0.00,,,0.00,0,weatherlink.com 1.10,2013-01-21 03:17:00,
2013-01-20 19:32:00,49.9,14.0,30.19,WSW,254,1.0,2.0,24,0.00,,,0.00,0,weatherlink.com 1.10,2013-01-21 03:32:00,
2013-01-20 19:47:00,49.3,14.0,30.20,WSW,254,0.0,4.0,24,0.00,,,0.00,0,weatherlink.com 1.10,2013-01-21 03:47:00,
2013-01-20 20:02:00,48.3,14.0,30.20,WSW,254,0.0,2.0,25,0.00,,,0.00,0,weatherlink.com 1.10,2013-01-21 04:02:00,
2013-01-20 20:17:00,47.8,13.0,30.21,WSW,254,0.0,4.0,25,0.00,,,0.00,0,weatherlink.com 1.10,2013-01-21 04:17:00,
2013-01-20 20:32:00,47.4,14.0,30.21,WSW,254,1.0,2.0,26,0.00,,,0.00,0,weatherlink.com 1.10,2013-01-21 04:32:00,
2013-01-20 20:47:00,46.6,13.0,30.21,WSW,254,0.0,0.0,26,0.00,,,0.00,0,weatherlink.com 1.10,2013-01-21 04:47:00,
2013-01-20 21:17:00,45.8,13.0,30.22,WSW,254,0.0,3.0,26,0.00,,,0.00,0,weatherlink.com 1.10,2013-01-21 05:17:00,
2013-01-20 21:33:00,45.9,13.0,30.22,WSW,254,2.0,2.0,27,0.00,,,0.00,0,weatherlink.com 1.10,2013-01-21 05:33:00,
2013-01-20 21:47:00,45.8,14.0,30.22,SW,223,0.0,3.0,28,0.00,,,0.00,0,weatherlink.com 1.10,2013-01-21 05:47:00,
2013-01-20 22:02:00,45.2,14.0,30.22,WSW,257,1.0,3.0,28,0.00,,,0.00,0,weatherlink.com 1.10,2013-01-21 06:02:00,
2013-01-20 22:17:00,45.3,14.0,30.22,NW,313,1.0,5.0,28,0.00,,,0.00,0,weatherlink.com 1.10,2013-01-21 06:17:00,
2013-01-20 22:32:00,45.9,13.0,30.22,NW,323,0.0,6.0,27,0.00,,,0.00,0,weatherlink.com 1.10,2013-01-21 06:32:00,
2013-01-20 22:47:00,46.0,14.0,30.22,NW,323,1.0,4.0,27,0.00,,,0.00,0,weatherlink.com 1.10,2013-01-21 06:47:00,
2013-01-20 23:02:00,45.6,13.0,30.22,NW,323,0.0,1.0,27,0.00,,,0.00,0,weatherlink.com 1.10,2013-01-21 07:02:00,
2013-01-20 23:17:00,45.5,14.0,30.23,NNW,342,0.0,3.0,28,0.00,,,0.00,0,weatherlink.com 1.10,2013-01-21 07:17:00,
2013-01-20 23:32:00,45.0,12.0,30.23,NW,304,1.0,5.0,26,0.00,,,0.00,0,weatherlink.com 1.10,2013-01-21 07:32:00,
2013-01-20 23:47:00,45.6,12.0,30.23,NW,304,0.0,1.0,26,0.00,,,0.00,0,weatherlink.com 1.10,2013-01-21 07:47:00,